sensor_id;sensor_type;location;lat;lon;timestamp;P1;durP1;ratioP1;P2;durP2;ratioP2
40951;SDS011;26682;51.660;19.338;2023-10-19T00:02:11;114.80;;;64.78;;
40951;SDS011;26682;51.660;19.338;2023-10-19T00:04:57;112.73;;;66.97;;
40951;SDS011;26682;51.660;19.338;2023-10-19T00:07:40;119.93;;;68.60;;
40951;SDS011;26682;51.660;19.338;2023-10-19T00:10:23;117.40;;;65.93;;
40951;SDS011;26682;51.660;19.338;2023-10-19T00:13:08;127.60;;;67.10;;
40951;SDS011;26682;51.660;19.338;2023-10-19T00:15:53;138.15;;;69.93;;
40951;SDS011;26682;51.660;19.338;2023-10-19T00:18:36;133.07;;;69.60;;
40951;SDS011;26682;51.660;19.338;2023-10-19T00:21:23;129.07;;;66.50;;
40951;SDS011;26682;51.660;19.338;2023-10-19T00:24:06;137.18;;;68.45;;
40951;SDS011;26682;51.660;19.338;2023-10-19T00:26:51;155.13;;;69.38;;
40951;SDS011;26682;51.660;19.338;2023-10-19T00:29:36;207.45;;;81.95;;
40951;SDS011;26682;51.660;19.338;2023-10-19T00:32:22;177.95;;;74.88;;
40951;SDS011;26682;51.660;19.338;2023-10-19T00:35:07;149.32;;;68.43;;
40951;SDS011;26682;51.660;19.338;2023-10-19T00:38:08;176.05;;;71.70;;
40951;SDS011;26682;51.660;19.338;2023-10-19T00:41:09;155.73;;;67.32;;
40951;SDS011;26682;51.660;19.338;2023-10-19T00:43:52;129.23;;;62.38;;
40951;SDS011;26682;51.660;19.338;2023-10-19T00:46:41;117.50;;;58.72;;
40951;SDS011;26682;51.660;19.338;2023-10-19T00:49:24;109.10;;;58.58;;
40951;SDS011;26682;51.660;19.338;2023-10-19T00:52:08;116.63;;;60.45;;
40951;SDS011;26682;51.660;19.338;2023-10-19T00:54:54;107.68;;;57.05;;
40951;SDS011;26682;51.660;19.338;2023-10-19T01:00:28;101.93;;;54.80;;
40951;SDS011;26682;51.660;19.338;2023-10-19T01:03:16;105.28;;;56.97;;
40951;SDS011;26682;51.660;19.338;2023-10-19T01:05:59;103.13;;;54.55;;
40951;SDS011;26682;51.660;19.338;2023-10-19T01:08:42;100.88;;;55.17;;
40951;SDS011;26682;51.660;19.338;2023-10-19T01:11:24;91.50;;;53.17;;
40951;SDS011;26682;51.660;19.338;2023-10-19T01:14:20;94.03;;;54.95;;
40951;SDS011;26682;51.660;19.338;2023-10-19T01:17:03;97.20;;;52.58;;
40951;SDS011;26682;51.660;19.338;2023-10-19T01:19:48;98.97;;;53.63;;
40951;SDS011;26682;51.660;19.338;2023-10-19T01:22:30;88.95;;;51.63;;
40951;SDS011;26682;51.660;19.338;2023-10-19T01:25:13;90.32;;;52.20;;
40951;SDS011;26682;51.660;19.338;2023-10-19T01:28:06;91.90;;;52.95;;
40951;SDS011;26682;51.660;19.338;2023-10-19T01:30:50;95.88;;;54.30;;
40951;SDS011;26682;51.660;19.338;2023-10-19T01:33:35;105.13;;;57.85;;
40951;SDS011;26682;51.660;19.338;2023-10-19T01:36:18;115.75;;;61.67;;
40951;SDS011;26682;51.660;19.338;2023-10-19T01:39:03;119.65;;;64.28;;
40951;SDS011;26682;51.660;19.338;2023-10-19T01:41:52;116.93;;;64.20;;
40951;SDS011;26682;51.660;19.338;2023-10-19T01:44:35;115.18;;;65.53;;
40951;SDS011;26682;51.660;19.338;2023-10-19T01:47:18;121.75;;;69.03;;
40951;SDS011;26682;51.660;19.338;2023-10-19T01:50:02;111.05;;;65.03;;
40951;SDS011;26682;51.660;19.338;2023-10-19T01:52:48;114.05;;;65.20;;
40951;SDS011;26682;51.660;19.338;2023-10-19T01:55:36;114.15;;;65.85;;
40951;SDS011;26682;51.660;19.338;2023-10-19T01:58:20;111.00;;;63.72;;
40951;SDS011;26682;51.660;19.338;2023-10-19T02:01:05;106.88;;;63.83;;
40951;SDS011;26682;51.660;19.338;2023-10-19T02:03:51;104.32;;;62.28;;
40951;SDS011;26682;51.660;19.338;2023-10-19T02:06:39;111.68;;;63.20;;
40951;SDS011;26682;51.660;19.338;2023-10-19T02:09:23;104.03;;;62.47;;
40951;SDS011;26682;51.660;19.338;2023-10-19T02:12:14;105.03;;;61.40;;
40951;SDS011;26682;51.660;19.338;2023-10-19T02:14:59;100.10;;;61.22;;
40951;SDS011;26682;51.660;19.338;2023-10-19T02:17:41;116.00;;;67.53;;
40951;SDS011;26682;51.660;19.338;2023-10-19T02:20:25;115.80;;;71.03;;
40951;SDS011;26682;51.660;19.338;2023-10-19T02:23:21;117.32;;;71.47;;
40951;SDS011;26682;51.660;19.338;2023-10-19T02:26:04;110.68;;;64.68;;
40951;SDS011;26682;51.660;19.338;2023-10-19T02:28:47;109.88;;;64.88;;
40951;SDS011;26682;51.660;19.338;2023-10-19T02:31:32;104.70;;;65.13;;
40951;SDS011;26682;51.660;19.338;2023-10-19T02:34:15;108.63;;;63.97;;
40951;SDS011;26682;51.660;19.338;2023-10-19T02:36:58;104.20;;;61.90;;
40951;SDS011;26682;51.660;19.338;2023-10-19T02:39:40;103.65;;;61.03;;
40951;SDS011;26682;51.660;19.338;2023-10-19T02:42:24;102.43;;;60.63;;
40951;SDS011;26682;51.660;19.338;2023-10-19T02:45:07;97.70;;;59.53;;
40951;SDS011;26682;51.660;19.338;2023-10-19T02:47:50;95.05;;;59.47;;
40951;SDS011;26682;51.660;19.338;2023-10-19T02:50:32;100.85;;;58.38;;
40951;SDS011;26682;51.660;19.338;2023-10-19T02:53:15;93.80;;;56.67;;
40951;SDS011;26682;51.660;19.338;2023-10-19T02:56:08;91.75;;;55.03;;
40951;SDS011;26682;51.660;19.338;2023-10-19T02:58:52;96.90;;;56.65;;
40951;SDS011;26682;51.660;19.338;2023-10-19T03:01:35;86.38;;;52.55;;
40951;SDS011;26682;51.660;19.338;2023-10-19T03:04:18;87.68;;;51.70;;
40951;SDS011;26682;51.660;19.338;2023-10-19T03:07:00;81.60;;;49.72;;
40951;SDS011;26682;51.660;19.338;2023-10-19T03:09:46;80.00;;;49.65;;
40951;SDS011;26682;51.660;19.338;2023-10-19T03:12:35;84.13;;;50.17;;
40951;SDS011;26682;51.660;19.338;2023-10-19T03:15:18;82.35;;;50.90;;
40951;SDS011;26682;51.660;19.338;2023-10-19T03:18:03;85.25;;;50.85;;
40951;SDS011;26682;51.660;19.338;2023-10-19T03:20:46;77.53;;;49.65;;
40951;SDS011;26682;51.660;19.338;2023-10-19T03:23:32;84.18;;;52.13;;
40951;SDS011;26682;51.660;19.338;2023-10-19T03:26:16;80.25;;;50.50;;
40951;SDS011;26682;51.660;19.338;2023-10-19T03:29:18;76.45;;;48.85;;
40951;SDS011;26682;51.660;19.338;2023-10-19T03:32:04;80.85;;;49.55;;
40951;SDS011;26682;51.660;19.338;2023-10-19T03:34:48;85.25;;;50.83;;
40951;SDS011;26682;51.660;19.338;2023-10-19T03:37:32;83.68;;;51.92;;
40951;SDS011;26682;51.660;19.338;2023-10-19T03:40:17;90.32;;;56.47;;
40951;SDS011;26682;51.660;19.338;2023-10-19T03:43:12;106.63;;;62.83;;
40951;SDS011;26682;51.660;19.338;2023-10-19T03:46:03;108.53;;;65.80;;
40951;SDS011;26682;51.660;19.338;2023-10-19T03:49:00;104.57;;;60.25;;
40951;SDS011;26682;51.660;19.338;2023-10-19T03:51:52;105.97;;;58.70;;
40951;SDS011;26682;51.660;19.338;2023-10-19T03:54:43;96.63;;;58.63;;
40951;SDS011;26682;51.660;19.338;2023-10-19T03:57:25;88.60;;;55.60;;
40951;SDS011;26682;51.660;19.338;2023-10-19T04:00:11;85.05;;;53.22;;
40951;SDS011;26682;51.660;19.338;2023-10-19T04:02:59;83.55;;;50.92;;
40951;SDS011;26682;51.660;19.338;2023-10-19T04:05:46;79.68;;;49.40;;
40951;SDS011;26682;51.660;19.338;2023-10-19T04:08:28;77.82;;;45.90;;
40951;SDS011;26682;51.660;19.338;2023-10-19T04:11:17;81.78;;;46.22;;
40951;SDS011;26682;51.660;19.338;2023-10-19T04:14:08;86.43;;;47.10;;
40951;SDS011;26682;51.660;19.338;2023-10-19T04:16:51;81.15;;;46.13;;
40951;SDS011;26682;51.660;19.338;2023-10-19T04:19:34;76.22;;;44.80;;
40951;SDS011;26682;51.660;19.338;2023-10-19T04:22:17;77.10;;;46.65;;
40951;SDS011;26682;51.660;19.338;2023-10-19T04:25:06;89.22;;;50.90;;
40951;SDS011;26682;51.660;19.338;2023-10-19T04:27:50;129.48;;;65.72;;
40951;SDS011;26682;51.660;19.338;2023-10-19T04:30:32;129.65;;;67.88;;
40951;SDS011;26682;51.660;19.338;2023-10-19T04:33:16;112.35;;;60.78;;
40951;SDS011;26682;51.660;19.338;2023-10-19T04:36:00;121.55;;;64.32;;
40951;SDS011;26682;51.660;19.338;2023-10-19T04:38:43;132.10;;;67.82;;
40951;SDS011;26682;51.660;19.338;2023-10-19T04:41:26;103.30;;;56.45;;
40951;SDS011;26682;51.660;19.338;2023-10-19T04:44:11;85.27;;;48.60;;
40951;SDS011;26682;51.660;19.338;2023-10-19T04:46:54;78.50;;;45.63;;
40951;SDS011;26682;51.660;19.338;2023-10-19T04:49:37;77.90;;;45.70;;
40951;SDS011;26682;51.660;19.338;2023-10-19T04:52:20;66.20;;;41.85;;
40951;SDS011;26682;51.660;19.338;2023-10-19T04:55:03;65.95;;;42.53;;
40951;SDS011;26682;51.660;19.338;2023-10-19T04:57:45;68.45;;;42.28;;
40951;SDS011;26682;51.660;19.338;2023-10-19T05:00:28;67.47;;;43.85;;
40951;SDS011;26682;51.660;19.338;2023-10-19T05:03:10;68.55;;;44.50;;
40951;SDS011;26682;51.660;19.338;2023-10-19T05:05:58;65.40;;;41.50;;
40951;SDS011;26682;51.660;19.338;2023-10-19T05:08:40;58.83;;;39.70;;
40951;SDS011;26682;51.660;19.338;2023-10-19T05:11:23;61.10;;;39.35;;
40951;SDS011;26682;51.660;19.338;2023-10-19T05:14:05;60.83;;;40.00;;
40951;SDS011;26682;51.660;19.338;2023-10-19T05:16:48;61.92;;;39.03;;
40951;SDS011;26682;51.660;19.338;2023-10-19T05:19:37;67.30;;;41.42;;
40951;SDS011;26682;51.660;19.338;2023-10-19T05:22:21;63.67;;;39.22;;
40951;SDS011;26682;51.660;19.338;2023-10-19T05:25:07;60.45;;;38.25;;
40951;SDS011;26682;51.660;19.338;2023-10-19T05:27:49;71.90;;;38.70;;
40951;SDS011;26682;51.660;19.338;2023-10-19T05:30:32;58.60;;;37.80;;
40951;SDS011;26682;51.660;19.338;2023-10-19T05:33:17;61.63;;;38.95;;
40951;SDS011;26682;51.660;19.338;2023-10-19T05:36:02;58.60;;;38.53;;
40951;SDS011;26682;51.660;19.338;2023-10-19T05:38:45;60.75;;;38.53;;
40951;SDS011;26682;51.660;19.338;2023-10-19T05:41:28;63.88;;;40.03;;
40951;SDS011;26682;51.660;19.338;2023-10-19T05:44:13;61.95;;;37.38;;
40951;SDS011;26682;51.660;19.338;2023-10-19T05:46:55;53.40;;;32.83;;
40951;SDS011;26682;51.660;19.338;2023-10-19T05:49:38;46.63;;;31.30;;
40951;SDS011;26682;51.660;19.338;2023-10-19T05:52:21;51.88;;;31.15;;
40951;SDS011;26682;51.660;19.338;2023-10-19T05:55:04;48.22;;;29.52;;
40951;SDS011;26682;51.660;19.338;2023-10-19T05:57:47;42.22;;;28.48;;
40951;SDS011;26682;51.660;19.338;2023-10-19T06:00:31;39.95;;;27.63;;
40951;SDS011;26682;51.660;19.338;2023-10-19T06:03:13;45.15;;;28.63;;
40951;SDS011;26682;51.660;19.338;2023-10-19T06:05:56;43.47;;;27.63;;
40951;SDS011;26682;51.660;19.338;2023-10-19T06:08:40;38.65;;;25.75;;
40951;SDS011;26682;51.660;19.338;2023-10-19T06:11:23;40.65;;;27.70;;
40951;SDS011;26682;51.660;19.338;2023-10-19T06:14:05;39.30;;;26.77;;
40951;SDS011;26682;51.660;19.338;2023-10-19T06:16:53;43.25;;;27.58;;
40951;SDS011;26682;51.660;19.338;2023-10-19T06:19:35;39.33;;;26.13;;
40951;SDS011;26682;51.660;19.338;2023-10-19T06:22:20;39.95;;;27.00;;
40951;SDS011;26682;51.660;19.338;2023-10-19T06:25:02;35.00;;;25.92;;
40951;SDS011;26682;51.660;19.338;2023-10-19T06:27:49;40.10;;;27.75;;
40951;SDS011;26682;51.660;19.338;2023-10-19T06:30:32;46.92;;;28.38;;
40951;SDS011;26682;51.660;19.338;2023-10-19T06:33:14;44.55;;;27.58;;
40951;SDS011;26682;51.660;19.338;2023-10-19T06:35:57;41.05;;;26.13;;
40951;SDS011;26682;51.660;19.338;2023-10-19T06:38:41;44.50;;;26.67;;
40951;SDS011;26682;51.660;19.338;2023-10-19T06:41:24;38.03;;;25.98;;
40951;SDS011;26682;51.660;19.338;2023-10-19T06:44:07;39.35;;;24.77;;
40951;SDS011;26682;51.660;19.338;2023-10-19T06:46:49;34.70;;;24.10;;
40951;SDS011;26682;51.660;19.338;2023-10-19T06:49:32;38.90;;;24.55;;
40951;SDS011;26682;51.660;19.338;2023-10-19T06:52:15;39.15;;;24.13;;
40951;SDS011;26682;51.660;19.338;2023-10-19T06:54:58;34.35;;;22.13;;
40951;SDS011;26682;51.660;19.338;2023-10-19T06:57:41;30.63;;;22.27;;
40951;SDS011;26682;51.660;19.338;2023-10-19T07:00:27;31.92;;;22.27;;
40951;SDS011;26682;51.660;19.338;2023-10-19T07:03:10;31.92;;;22.02;;
40951;SDS011;26682;51.660;19.338;2023-10-19T07:05:53;31.15;;;22.48;;
40951;SDS011;26682;51.660;19.338;2023-10-19T07:08:36;31.95;;;21.02;;
40951;SDS011;26682;51.660;19.338;2023-10-19T07:11:18;34.85;;;22.30;;
40951;SDS011;26682;51.660;19.338;2023-10-19T07:14:01;36.38;;;22.38;;
40951;SDS011;26682;51.660;19.338;2023-10-19T07:16:43;33.22;;;21.67;;
40951;SDS011;26682;51.660;19.338;2023-10-19T07:19:26;30.95;;;22.40;;
40951;SDS011;26682;51.660;19.338;2023-10-19T07:22:09;33.85;;;21.50;;
40951;SDS011;26682;51.660;19.338;2023-10-19T07:24:51;31.13;;;20.80;;
40951;SDS011;26682;51.660;19.338;2023-10-19T07:27:34;33.03;;;23.33;;
40951;SDS011;26682;51.660;19.338;2023-10-19T07:30:19;36.05;;;24.27;;
40951;SDS011;26682;51.660;19.338;2023-10-19T07:33:03;36.97;;;23.95;;
40951;SDS011;26682;51.660;19.338;2023-10-19T07:35:47;42.13;;;26.02;;
40951;SDS011;26682;51.660;19.338;2023-10-19T07:38:34;41.45;;;26.38;;
40951;SDS011;26682;51.660;19.338;2023-10-19T07:41:17;35.28;;;23.15;;
40951;SDS011;26682;51.660;19.338;2023-10-19T07:44:00;31.27;;;22.10;;
40951;SDS011;26682;51.660;19.338;2023-10-19T07:46:42;29.83;;;20.02;;
40951;SDS011;26682;51.660;19.338;2023-10-19T07:49:26;29.02;;;19.13;;
40951;SDS011;26682;51.660;19.338;2023-10-19T07:52:08;26.95;;;20.17;;
40951;SDS011;26682;51.660;19.338;2023-10-19T07:54:53;26.67;;;20.20;;
40951;SDS011;26682;51.660;19.338;2023-10-19T07:57:35;31.20;;;20.05;;
40951;SDS011;26682;51.660;19.338;2023-10-19T08:00:20;29.63;;;21.13;;
40951;SDS011;26682;51.660;19.338;2023-10-19T08:03:03;29.95;;;19.52;;
40951;SDS011;26682;51.660;19.338;2023-10-19T08:05:47;31.38;;;20.25;;
40951;SDS011;26682;51.660;19.338;2023-10-19T08:08:29;29.25;;;20.88;;
40951;SDS011;26682;51.660;19.338;2023-10-19T08:11:16;30.60;;;19.08;;
40951;SDS011;26682;51.660;19.338;2023-10-19T08:13:58;26.50;;;18.58;;
40951;SDS011;26682;51.660;19.338;2023-10-19T08:16:42;27.92;;;19.70;;
40951;SDS011;26682;51.660;19.338;2023-10-19T08:19:27;28.98;;;18.52;;
40951;SDS011;26682;51.660;19.338;2023-10-19T08:22:10;25.92;;;18.67;;
40951;SDS011;26682;51.660;19.338;2023-10-19T08:24:52;28.10;;;18.33;;
40951;SDS011;26682;51.660;19.338;2023-10-19T08:27:43;30.20;;;18.85;;
40951;SDS011;26682;51.660;19.338;2023-10-19T08:30:27;29.85;;;18.80;;
40951;SDS011;26682;51.660;19.338;2023-10-19T08:33:10;28.40;;;19.75;;
40951;SDS011;26682;51.660;19.338;2023-10-19T08:35:56;28.30;;;18.88;;
40951;SDS011;26682;51.660;19.338;2023-10-19T08:38:39;25.88;;;18.60;;
40951;SDS011;26682;51.660;19.338;2023-10-19T08:41:21;24.23;;;18.77;;
40951;SDS011;26682;51.660;19.338;2023-10-19T08:44:05;26.83;;;18.17;;
40951;SDS011;26682;51.660;19.338;2023-10-19T08:46:58;27.10;;;17.92;;
40951;SDS011;26682;51.660;19.338;2023-10-19T08:49:41;26.25;;;18.17;;
40951;SDS011;26682;51.660;19.338;2023-10-19T08:52:24;27.70;;;18.30;;
40951;SDS011;26682;51.660;19.338;2023-10-19T08:55:08;25.83;;;18.58;;
40951;SDS011;26682;51.660;19.338;2023-10-19T08:57:54;23.65;;;18.08;;
40951;SDS011;26682;51.660;19.338;2023-10-19T09:00:47;28.17;;;19.35;;
40951;SDS011;26682;51.660;19.338;2023-10-19T09:03:33;27.73;;;19.35;;
40951;SDS011;26682;51.660;19.338;2023-10-19T09:06:17;26.60;;;17.55;;
40951;SDS011;26682;51.660;19.338;2023-10-19T09:08:59;24.35;;;17.85;;
40951;SDS011;26682;51.660;19.338;2023-10-19T09:11:48;26.02;;;18.67;;
40951;SDS011;26682;51.660;19.338;2023-10-19T09:14:30;30.13;;;18.70;;
40951;SDS011;26682;51.660;19.338;2023-10-19T09:17:27;23.77;;;16.73;;
40951;SDS011;26682;51.660;19.338;2023-10-19T09:20:11;26.80;;;17.95;;
40951;SDS011;26682;51.660;19.338;2023-10-19T09:22:54;25.88;;;18.05;;
40951;SDS011;26682;51.660;19.338;2023-10-19T09:25:39;22.60;;;17.00;;
40951;SDS011;26682;51.660;19.338;2023-10-19T09:28:22;23.77;;;16.63;;
40951;SDS011;26682;51.660;19.338;2023-10-19T09:31:06;27.40;;;19.00;;
40951;SDS011;26682;51.660;19.338;2023-10-19T09:33:52;28.58;;;17.83;;
40951;SDS011;26682;51.660;19.338;2023-10-19T09:36:37;30.58;;;18.98;;
40951;SDS011;26682;51.660;19.338;2023-10-19T09:39:20;24.35;;;17.00;;
40951;SDS011;26682;51.660;19.338;2023-10-19T09:42:03;23.17;;;16.60;;
40951;SDS011;26682;51.660;19.338;2023-10-19T09:44:50;23.45;;;16.90;;
40951;SDS011;26682;51.660;19.338;2023-10-19T09:47:42;26.95;;;16.77;;
40951;SDS011;26682;51.660;19.338;2023-10-19T09:50:32;27.05;;;17.08;;
40951;SDS011;26682;51.660;19.338;2023-10-19T09:53:14;22.05;;;15.75;;
40951;SDS011;26682;51.660;19.338;2023-10-19T09:55:57;25.73;;;16.67;;
40951;SDS011;26682;51.660;19.338;2023-10-19T09:58:53;25.05;;;16.42;;
40951;SDS011;26682;51.660;19.338;2023-10-19T10:04:55;22.35;;;16.60;;
40951;SDS011;26682;51.660;19.338;2023-10-19T10:07:39;24.35;;;15.80;;
40951;SDS011;26682;51.660;19.338;2023-10-19T10:10:23;29.98;;;17.60;;
40951;SDS011;26682;51.660;19.338;2023-10-19T10:16:09;24.17;;;15.65;;
40951;SDS011;26682;51.660;19.338;2023-10-19T10:18:59;23.85;;;14.98;;
40951;SDS011;26682;51.660;19.338;2023-10-19T10:21:42;20.05;;;14.73;;
40951;SDS011;26682;51.660;19.338;2023-10-19T10:24:56;21.85;;;15.70;;
40951;SDS011;26682;51.660;19.338;2023-10-19T10:27:51;23.00;;;15.90;;
40951;SDS011;26682;51.660;19.338;2023-10-19T10:30:34;22.73;;;15.57;;
40951;SDS011;26682;51.660;19.338;2023-10-19T10:33:37;26.52;;;15.73;;
40951;SDS011;26682;51.660;19.338;2023-10-19T10:36:23;24.35;;;17.05;;
40951;SDS011;26682;51.660;19.338;2023-10-19T10:39:05;25.70;;;15.90;;
40951;SDS011;26682;51.660;19.338;2023-10-19T10:41:48;24.92;;;16.20;;
40951;SDS011;26682;51.660;19.338;2023-10-19T10:44:55;21.10;;;15.88;;
40951;SDS011;26682;51.660;19.338;2023-10-19T10:47:38;27.42;;;17.08;;
40951;SDS011;26682;51.660;19.338;2023-10-19T10:50:26;26.63;;;17.98;;
40951;SDS011;26682;51.660;19.338;2023-10-19T10:53:12;23.87;;;17.73;;
40951;SDS011;26682;51.660;19.338;2023-10-19T10:56:00;27.45;;;18.92;;
40951;SDS011;26682;51.660;19.338;2023-10-19T10:58:43;25.02;;;17.95;;
40951;SDS011;26682;51.660;19.338;2023-10-19T11:01:30;24.98;;;16.83;;
40951;SDS011;26682;51.660;19.338;2023-10-19T11:04:15;22.48;;;16.33;;
40951;SDS011;26682;51.660;19.338;2023-10-19T11:07:01;25.15;;;16.85;;
40951;SDS011;26682;51.660;19.338;2023-10-19T11:09:44;22.63;;;17.08;;
40951;SDS011;26682;51.660;19.338;2023-10-19T11:12:30;26.30;;;17.98;;
40951;SDS011;26682;51.660;19.338;2023-10-19T11:15:13;27.00;;;17.20;;
40951;SDS011;26682;51.660;19.338;2023-10-19T11:18:03;28.13;;;17.20;;
40951;SDS011;26682;51.660;19.338;2023-10-19T11:20:53;26.15;;;18.13;;
40951;SDS011;26682;51.660;19.338;2023-10-19T11:23:43;24.23;;;17.05;;
40951;SDS011;26682;51.660;19.338;2023-10-19T11:26:31;29.25;;;18.77;;
40951;SDS011;26682;51.660;19.338;2023-10-19T11:29:22;31.30;;;20.40;;
40951;SDS011;26682;51.660;19.338;2023-10-19T11:32:06;28.02;;;18.98;;
40951;SDS011;26682;51.660;19.338;2023-10-19T11:34:48;29.02;;;18.77;;
40951;SDS011;26682;51.660;19.338;2023-10-19T11:37:51;27.30;;;19.15;;
40951;SDS011;26682;51.660;19.338;2023-10-19T11:40:34;30.63;;;19.50;;
40951;SDS011;26682;51.660;19.338;2023-10-19T11:43:18;31.40;;;20.58;;
40951;SDS011;26682;51.660;19.338;2023-10-19T11:46:01;31.67;;;20.17;;
40951;SDS011;26682;51.660;19.338;2023-10-19T11:48:47;30.75;;;21.52;;
40951;SDS011;26682;51.660;19.338;2023-10-19T11:51:30;36.10;;;22.00;;
40951;SDS011;26682;51.660;19.338;2023-10-19T11:54:13;28.73;;;21.33;;
40951;SDS011;26682;51.660;19.338;2023-10-19T11:56:55;30.08;;;21.63;;
40951;SDS011;26682;51.660;19.338;2023-10-19T11:59:38;28.08;;;22.15;;
40951;SDS011;26682;51.660;19.338;2023-10-19T12:02:22;30.85;;;22.00;;
40951;SDS011;26682;51.660;19.338;2023-10-19T12:05:05;35.10;;;22.58;;
40951;SDS011;26682;51.660;19.338;2023-10-19T12:10:34;34.75;;;24.10;;
40951;SDS011;26682;51.660;19.338;2023-10-19T12:13:19;35.17;;;22.60;;
40951;SDS011;26682;51.660;19.338;2023-10-19T12:16:02;36.00;;;24.95;;
40951;SDS011;26682;51.660;19.338;2023-10-19T12:18:47;40.90;;;27.65;;
40951;SDS011;26682;51.660;19.338;2023-10-19T12:21:31;36.70;;;28.20;;
40951;SDS011;26682;51.660;19.338;2023-10-19T12:24:14;38.30;;;27.05;;
40951;SDS011;26682;51.660;19.338;2023-10-19T12:26:57;33.40;;;24.65;;
40951;SDS011;26682;51.660;19.338;2023-10-19T12:29:39;37.03;;;25.30;;
40951;SDS011;26682;51.660;19.338;2023-10-19T12:32:24;36.08;;;24.85;;
40951;SDS011;26682;51.660;19.338;2023-10-19T12:35:10;37.13;;;25.48;;
40951;SDS011;26682;51.660;19.338;2023-10-19T12:37:54;36.80;;;25.02;;
40951;SDS011;26682;51.660;19.338;2023-10-19T12:40:37;34.47;;;25.27;;
40951;SDS011;26682;51.660;19.338;2023-10-19T12:43:20;37.88;;;26.85;;
40951;SDS011;26682;51.660;19.338;2023-10-19T12:46:06;36.95;;;26.02;;
40951;SDS011;26682;51.660;19.338;2023-10-19T12:48:51;37.15;;;25.73;;
40951;SDS011;26682;51.660;19.338;2023-10-19T12:51:34;35.75;;;25.48;;
40951;SDS011;26682;51.660;19.338;2023-10-19T12:54:18;36.00;;;27.65;;
40951;SDS011;26682;51.660;19.338;2023-10-19T12:57:00;37.72;;;27.23;;
40951;SDS011;26682;51.660;19.338;2023-10-19T12:59:45;38.97;;;29.70;;
40951;SDS011;26682;51.660;19.338;2023-10-19T13:02:28;42.25;;;28.75;;
40951;SDS011;26682;51.660;19.338;2023-10-19T13:05:12;40.42;;;30.02;;
40951;SDS011;26682;51.660;19.338;2023-10-19T13:07:58;45.38;;;30.08;;
40951;SDS011;26682;51.660;19.338;2023-10-19T13:10:45;42.03;;;31.35;;
40951;SDS011;26682;51.660;19.338;2023-10-19T13:13:29;40.97;;;30.58;;
40951;SDS011;26682;51.660;19.338;2023-10-19T13:16:11;39.72;;;30.05;;
40951;SDS011;26682;51.660;19.338;2023-10-19T13:18:55;40.15;;;31.02;;
40951;SDS011;26682;51.660;19.338;2023-10-19T13:21:38;49.78;;;32.55;;
40951;SDS011;26682;51.660;19.338;2023-10-19T13:24:23;49.20;;;32.73;;
40951;SDS011;26682;51.660;19.338;2023-10-19T13:27:08;47.10;;;31.30;;
40951;SDS011;26682;51.660;19.338;2023-10-19T13:29:50;49.03;;;34.25;;
40951;SDS011;26682;51.660;19.338;2023-10-19T13:32:33;52.03;;;36.20;;
40951;SDS011;26682;51.660;19.338;2023-10-19T13:35:15;50.60;;;35.33;;
40951;SDS011;26682;51.660;19.338;2023-10-19T13:37:59;51.50;;;36.40;;
40951;SDS011;26682;51.660;19.338;2023-10-19T13:40:42;56.17;;;36.78;;
40951;SDS011;26682;51.660;19.338;2023-10-19T13:43:27;53.60;;;37.50;;
40951;SDS011;26682;51.660;19.338;2023-10-19T13:46:09;55.70;;;37.72;;
40951;SDS011;26682;51.660;19.338;2023-10-19T13:48:52;49.83;;;36.13;;
40951;SDS011;26682;51.660;19.338;2023-10-19T13:51:36;52.13;;;35.85;;
40951;SDS011;26682;51.660;19.338;2023-10-19T13:54:19;51.35;;;35.33;;
40951;SDS011;26682;51.660;19.338;2023-10-19T13:57:02;55.67;;;37.35;;
40951;SDS011;26682;51.660;19.338;2023-10-19T13:59:48;60.03;;;39.50;;
40951;SDS011;26682;51.660;19.338;2023-10-19T14:02:31;61.88;;;42.28;;
40951;SDS011;26682;51.660;19.338;2023-10-19T14:05:13;57.58;;;40.15;;
40951;SDS011;26682;51.660;19.338;2023-10-19T14:07:56;56.45;;;38.15;;
40951;SDS011;26682;51.660;19.338;2023-10-19T14:10:39;56.78;;;38.95;;
40951;SDS011;26682;51.660;19.338;2023-10-19T14:13:25;58.58;;;40.70;;
40951;SDS011;26682;51.660;19.338;2023-10-19T14:16:08;55.63;;;38.05;;
40951;SDS011;26682;51.660;19.338;2023-10-19T14:18:51;54.72;;;35.95;;
40951;SDS011;26682;51.660;19.338;2023-10-19T14:21:33;58.75;;;37.60;;
40951;SDS011;26682;51.660;19.338;2023-10-19T14:24:19;56.60;;;38.00;;
40951;SDS011;26682;51.660;19.338;2023-10-19T14:27:03;57.47;;;37.15;;
40951;SDS011;26682;51.660;19.338;2023-10-19T14:29:46;53.67;;;38.28;;
40951;SDS011;26682;51.660;19.338;2023-10-19T14:32:29;53.13;;;36.45;;
40951;SDS011;26682;51.660;19.338;2023-10-19T14:35:12;58.42;;;41.42;;
40951;SDS011;26682;51.660;19.338;2023-10-19T14:37:57;61.30;;;38.55;;
40951;SDS011;26682;51.660;19.338;2023-10-19T14:40:42;67.18;;;45.38;;
40951;SDS011;26682;51.660;19.338;2023-10-19T14:43:27;67.28;;;43.38;;
40951;SDS011;26682;51.660;19.338;2023-10-19T14:46:11;68.95;;;46.83;;
40951;SDS011;26682;51.660;19.338;2023-10-19T14:48:55;75.10;;;47.95;;
40951;SDS011;26682;51.660;19.338;2023-10-19T14:51:38;97.72;;;58.55;;
40951;SDS011;26682;51.660;19.338;2023-10-19T14:54:20;77.97;;;47.88;;
40951;SDS011;26682;51.660;19.338;2023-10-19T14:57:04;59.50;;;40.22;;
40951;SDS011;26682;51.660;19.338;2023-10-19T14:59:47;66.15;;;40.80;;
40951;SDS011;26682;51.660;19.338;2023-10-19T15:02:29;63.42;;;41.70;;
40951;SDS011;26682;51.660;19.338;2023-10-19T15:05:13;66.03;;;44.70;;
40951;SDS011;26682;51.660;19.338;2023-10-19T15:07:57;64.32;;;40.17;;
40951;SDS011;26682;51.660;19.338;2023-10-19T15:10:40;55.17;;;38.40;;
40951;SDS011;26682;51.660;19.338;2023-10-19T15:13:26;56.42;;;38.03;;
40951;SDS011;26682;51.660;19.338;2023-10-19T15:16:09;54.80;;;37.40;;
40951;SDS011;26682;51.660;19.338;2023-10-19T15:18:52;52.03;;;37.50;;
40951;SDS011;26682;51.660;19.338;2023-10-19T15:21:34;54.60;;;36.00;;
40951;SDS011;26682;51.660;19.338;2023-10-19T15:24:16;53.28;;;37.40;;
40951;SDS011;26682;51.660;19.338;2023-10-19T15:27:00;50.60;;;36.08;;
40951;SDS011;26682;51.660;19.338;2023-10-19T15:29:42;61.05;;;38.53;;
40951;SDS011;26682;51.660;19.338;2023-10-19T15:32:25;55.15;;;38.30;;
40951;SDS011;26682;51.660;19.338;2023-10-19T15:35:11;58.53;;;39.15;;
40951;SDS011;26682;51.660;19.338;2023-10-19T15:38:03;55.03;;;38.75;;
40951;SDS011;26682;51.660;19.338;2023-10-19T15:40:46;59.35;;;39.88;;
40951;SDS011;26682;51.660;19.338;2023-10-19T15:43:30;50.22;;;37.35;;
40951;SDS011;26682;51.660;19.338;2023-10-19T15:46:12;60.72;;;41.03;;
40951;SDS011;26682;51.660;19.338;2023-10-19T15:48:58;60.42;;;38.88;;
40951;SDS011;26682;51.660;19.338;2023-10-19T15:51:41;58.83;;;39.95;;
40951;SDS011;26682;51.660;19.338;2023-10-19T15:54:23;52.83;;;39.60;;
40951;SDS011;26682;51.660;19.338;2023-10-19T15:57:06;62.97;;;40.28;;
40951;SDS011;26682;51.660;19.338;2023-10-19T15:59:48;60.70;;;39.95;;